sensor_id;sensor_type;location;lat;lon;timestamp;temperature;humidity
66752;SHT31;53663;42.676;23.238;2023-04-15T00:00:33;7.26;78.73
66752;SHT31;53663;42.676;23.238;2023-04-15T00:02:59;7.29;77.29
66752;SHT31;53663;42.676;23.238;2023-04-15T00:05:28;7.27;76.89
66752;SHT31;53663;42.676;23.238;2023-04-15T00:07:53;7.39;77.94
66752;SHT31;53663;42.676;23.238;2023-04-15T00:10:19;7.50;75.88
66752;SHT31;53663;42.676;23.238;2023-04-15T00:12:44;7.52;74.74
66752;SHT31;53663;42.676;23.238;2023-04-15T00:15:10;7.59;75.83
66752;SHT31;53663;42.676;23.238;2023-04-15T00:17:37;7.32;73.25
66752;SHT31;53663;42.676;23.238;2023-04-15T00:20:04;7.14;74.56
66752;SHT31;53663;42.676;23.238;2023-04-15T00:22:31;7.18;74.85
66752;SHT31;53663;42.676;23.238;2023-04-15T00:24:57;7.23;73.22
66752;SHT31;53663;42.676;23.238;2023-04-15T00:27:22;7.08;74.59
66752;SHT31;53663;42.676;23.238;2023-04-15T00:29:48;7.05;75.90
66752;SHT31;53663;42.676;23.238;2023-04-15T00:32:14;7.06;77.02
66752;SHT31;53663;42.676;23.238;2023-04-15T00:34:40;6.97;77.79
66752;SHT31;53663;42.676;23.238;2023-04-15T00:37:07;7.12;78.18
66752;SHT31;53663;42.676;23.238;2023-04-15T00:39:34;7.22;77.47
66752;SHT31;53663;42.676;23.238;2023-04-15T00:42:00;7.49;77.43
66752;SHT31;53663;42.676;23.238;2023-04-15T00:44:26;7.54;78.13
66752;SHT31;53663;42.676;23.238;2023-04-15T00:46:52;7.59;77.30
66752;SHT31;53663;42.676;23.238;2023-04-15T00:49:18;7.62;76.48
66752;SHT31;53663;42.676;23.238;2023-04-15T00:51:44;7.63;77.10
66752;SHT31;53663;42.676;23.238;2023-04-15T00:54:10;7.57;76.69
66752;SHT31;53663;42.676;23.238;2023-04-15T00:56:37;7.52;77.20
66752;SHT31;53663;42.676;23.238;2023-04-15T00:59:04;7.50;77.05
66752;SHT31;53663;42.676;23.238;2023-04-15T01:01:37;7.45;77.59
66752;SHT31;53663;42.676;23.238;2023-04-15T01:04:03;7.36;77.61
66752;SHT31;53663;42.676;23.238;2023-04-15T01:06:30;7.30;77.96
66752;SHT31;53663;42.676;23.238;2023-04-15T01:08:57;7.26;77.31
66752;SHT31;53663;42.676;23.238;2023-04-15T01:11:23;7.18;77.87
66752;SHT31;53663;42.676;23.238;2023-04-15T01:13:50;6.94;80.36
66752;SHT31;53663;42.676;23.238;2023-04-15T01:16:17;6.64;81.92
66752;SHT31;53663;42.676;23.238;2023-04-15T01:18:43;6.51;82.36
66752;SHT31;53663;42.676;23.238;2023-04-15T01:21:08;6.50;82.22
66752;SHT31;53663;42.676;23.238;2023-04-15T01:23:35;6.71;81.28
66752;SHT31;53663;42.676;23.238;2023-04-15T01:26:02;6.74;81.85
66752;SHT31;53663;42.676;23.238;2023-04-15T01:28:28;6.81;81.84
66752;SHT31;53663;42.676;23.238;2023-04-15T01:31:11;6.74;82.23
66752;SHT31;53663;42.676;23.238;2023-04-15T01:33:38;6.53;82.06
66752;SHT31;53663;42.676;23.238;2023-04-15T01:36:05;6.48;82.20
66752;SHT31;53663;42.676;23.238;2023-04-15T01:38:32;6.57;82.28
66752;SHT31;53663;42.676;23.238;2023-04-15T01:40:58;6.60;82.03
66752;SHT31;53663;42.676;23.238;2023-04-15T01:43:25;6.61;80.67
66752;SHT31;53663;42.676;23.238;2023-04-15T01:45:50;6.54;80.16
66752;SHT31;53663;42.676;23.238;2023-04-15T01:48:16;6.54;80.21
66752;SHT31;53663;42.676;23.238;2023-04-15T01:50:42;6.56;81.09
66752;SHT31;53663;42.676;23.238;2023-04-15T01:53:08;6.54;81.54
66752;SHT31;53663;42.676;23.238;2023-04-15T01:55:34;6.44;81.18
66752;SHT31;53663;42.676;23.238;2023-04-15T01:57:59;6.41;80.87
66752;SHT31;53663;42.676;23.238;2023-04-15T02:00:25;6.40;80.71
66752;SHT31;53663;42.676;23.238;2023-04-15T02:02:51;6.39;80.79
66752;SHT31;53663;42.676;23.238;2023-04-15T02:05:17;6.53;80.23
66752;SHT31;53663;42.676;23.238;2023-04-15T02:07:46;6.41;80.67
66752;SHT31;53663;42.676;23.238;2023-04-15T02:10:12;6.15;81.64
66752;SHT31;53663;42.676;23.238;2023-04-15T02:12:38;5.91;82.06
66752;SHT31;53663;42.676;23.238;2023-04-15T02:15:05;6.03;82.18
66752;SHT31;53663;42.676;23.238;2023-04-15T02:17:34;6.03;81.80
66752;SHT31;53663;42.676;23.238;2023-04-15T02:20:01;5.99;81.74
66752;SHT31;53663;42.676;23.238;2023-04-15T02:22:26;5.87;81.90
66752;SHT31;53663;42.676;23.238;2023-04-15T02:24:52;5.88;81.94
66752;SHT31;53663;42.676;23.238;2023-04-15T02:27:17;5.85;81.86
66752;SHT31;53663;42.676;23.238;2023-04-15T02:29:44;5.84;81.90
66752;SHT31;53663;42.676;23.238;2023-04-15T02:32:10;5.88;81.82
66752;SHT31;53663;42.676;23.238;2023-04-15T02:34:37;5.89;81.52
66752;SHT31;53663;42.676;23.238;2023-04-15T02:37:10;5.87;81.44
66752;SHT31;53663;42.676;23.238;2023-04-15T02:39:36;5.84;81.34
66752;SHT31;53663;42.676;23.238;2023-04-15T02:42:02;5.89;81.41
66752;SHT31;53663;42.676;23.238;2023-04-15T02:44:28;5.85;81.27
66752;SHT31;53663;42.676;23.238;2023-04-15T02:46:57;5.75;81.35
66752;SHT31;53663;42.676;23.238;2023-04-15T02:49:24;5.75;81.59
66752;SHT31;53663;42.676;23.238;2023-04-15T02:51:50;5.72;81.59
66752;SHT31;53663;42.676;23.238;2023-04-15T02:54:17;5.68;81.39
66752;SHT31;53663;42.676;23.238;2023-04-15T02:56:43;5.62;81.56
66752;SHT31;53663;42.676;23.238;2023-04-15T02:59:08;5.60;81.35
66752;SHT31;53663;42.676;23.238;2023-04-15T03:01:34;5.48;81.79
66752;SHT31;53663;42.676;23.238;2023-04-15T03:04:00;5.47;81.88
66752;SHT31;53663;42.676;23.238;2023-04-15T03:06:25;5.47;82.19
66752;SHT31;53663;42.676;23.238;2023-04-15T03:08:51;5.47;82.21
66752;SHT31;53663;42.676;23.238;2023-04-15T03:11:18;5.43;82.17
66752;SHT31;53663;42.676;23.238;2023-04-15T03:13:43;5.47;82.09
66752;SHT31;53663;42.676;23.238;2023-04-15T03:16:20;5.41;81.85
66752;SHT31;53663;42.676;23.238;2023-04-15T03:18:46;5.39;81.77
66752;SHT31;53663;42.676;23.238;2023-04-15T03:21:11;5.37;81.82
66752;SHT31;53663;42.676;23.238;2023-04-15T03:23:38;5.37;81.45
66752;SHT31;53663;42.676;23.238;2023-04-15T03:26:03;5.15;82.14
66752;SHT31;53663;42.676;23.238;2023-04-15T03:28:31;5.08;82.52
66752;SHT31;53663;42.676;23.238;2023-04-15T03:30:58;4.99;82.82
66752;SHT31;53663;42.676;23.238;2023-04-15T03:33:23;5.03;82.55
66752;SHT31;53663;42.676;23.238;2023-04-15T03:35:50;4.95;82.87
66752;SHT31;53663;42.676;23.238;2023-04-15T03:38:16;5.03;82.65
66752;SHT31;53663;42.676;23.238;2023-04-15T03:40:42;4.95;82.74
66752;SHT31;53663;42.676;23.238;2023-04-15T03:43:08;4.89;82.88
66752;SHT31;53663;42.676;23.238;2023-04-15T03:45:34;4.85;82.68
66752;SHT31;53663;42.676;23.238;2023-04-15T03:47:59;4.91;82.53
66752;SHT31;53663;42.676;23.238;2023-04-15T03:50:25;5.00;82.46
66752;SHT31;53663;42.676;23.238;2023-04-15T03:52:52;4.85;82.93
66752;SHT31;53663;42.676;23.238;2023-04-15T03:55:17;4.79;83.54
66752;SHT31;53663;42.676;23.238;2023-04-15T03:57:44;4.69;83.76
66752;SHT31;53663;42.676;23.238;2023-04-15T04:00:10;4.69;83.60
66752;SHT31;53663;42.676;23.238;2023-04-15T04:02:38;4.73;83.75
66752;SHT31;53663;42.676;23.238;2023-04-15T04:05:03;4.82;83.38
66752;SHT31;53663;42.676;23.238;2023-04-15T04:07:29;4.51;84.19
66752;SHT31;53663;42.676;23.238;2023-04-15T04:09:58;4.54;84.28
66752;SHT31;53663;42.676;23.238;2023-04-15T04:12:23;4.50;84.47
66752;SHT31;53663;42.676;23.238;2023-04-15T04:14:49;4.65;83.90
66752;SHT31;53663;42.676;23.238;2023-04-15T04:17:14;4.76;83.93
66752;SHT31;53663;42.676;23.238;2023-04-15T04:19:40;4.88;83.45
66752;SHT31;53663;42.676;23.238;2023-04-15T04:22:05;4.99;82.91
66752;SHT31;53663;42.676;23.238;2023-04-15T04:24:31;5.15;82.60
66752;SHT31;53663;42.676;23.238;2023-04-15T04:26:56;5.15;82.86
66752;SHT31;53663;42.676;23.238;2023-04-15T04:29:22;5.29;82.66
66752;SHT31;53663;42.676;23.238;2023-04-15T04:31:48;5.46;82.20
66752;SHT31;53663;42.676;23.238;2023-04-15T04:34:14;5.58;82.26
66752;SHT31;53663;42.676;23.238;2023-04-15T04:36:40;6.10;81.36
66752;SHT31;53663;42.676;23.238;2023-04-15T04:39:05;7.25;79.12
66752;SHT31;53663;42.676;23.238;2023-04-15T04:41:31;8.45;75.38
66752;SHT31;53663;42.676;23.238;2023-04-15T04:43:56;9.60;70.91
66752;SHT31;53663;42.676;23.238;2023-04-15T04:46:22;10.72;66.72
66752;SHT31;53663;42.676;23.238;2023-04-15T04:48:48;11.84;63.30
66752;SHT31;53663;42.676;23.238;2023-04-15T04:51:13;12.77;58.51
66752;SHT31;53663;42.676;23.238;2023-04-15T04:53:39;13.65;54.74
66752;SHT31;53663;42.676;23.238;2023-04-15T04:56:05;14.14;53.11
66752;SHT31;53663;42.676;23.238;2023-04-15T04:58:30;15.11;49.95
66752;SHT31;53663;42.676;23.238;2023-04-15T05:00:56;15.93;47.13
66752;SHT31;53663;42.676;23.238;2023-04-15T05:03:22;16.64;44.90
66752;SHT31;53663;42.676;23.238;2023-04-15T05:05:48;17.09;43.08
66752;SHT31;53663;42.676;23.238;2023-04-15T05:08:14;17.27;42.96
66752;SHT31;53663;42.676;23.238;2023-04-15T05:10:40;18.09;41.19
66752;SHT31;53663;42.676;23.238;2023-04-15T05:13:06;18.67;39.57
66752;SHT31;53663;42.676;23.238;2023-04-15T05:15:31;18.89;39.05
66752;SHT31;53663;42.676;23.238;2023-04-15T05:17:57;19.22;37.93
66752;SHT31;53663;42.676;23.238;2023-04-15T05:20:23;19.73;37.71
66752;SHT31;53663;42.676;23.238;2023-04-15T05:22:48;19.62;36.67
66752;SHT31;53663;42.676;23.238;2023-04-15T05:25:14;18.57;38.00
66752;SHT31;53663;42.676;23.238;2023-04-15T05:27:39;18.02;39.83
66752;SHT31;53663;42.676;23.238;2023-04-15T05:30:05;17.64;40.86
66752;SHT31;53663;42.676;23.238;2023-04-15T05:32:31;17.71;41.39
66752;SHT31;53663;42.676;23.238;2023-04-15T05:34:57;18.01;40.11
66752;SHT31;53663;42.676;23.238;2023-04-15T05:37:22;17.42;40.98
66752;SHT31;53663;42.676;23.238;2023-04-15T05:39:47;17.59;41.25
66752;SHT31;53663;42.676;23.238;2023-04-15T05:42:13;17.75;40.37
66752;SHT31;53663;42.676;23.238;2023-04-15T05:44:39;18.29;39.32
66752;SHT31;53663;42.676;23.238;2023-04-15T05:47:04;18.53;39.13
66752;SHT31;53663;42.676;23.238;2023-04-15T05:49:31;17.94;40.61
66752;SHT31;53663;42.676;23.238;2023-04-15T05:51:56;18.18;39.77
66752;SHT31;53663;42.676;23.238;2023-04-15T05:54:22;18.77;39.44
66752;SHT31;53663;42.676;23.238;2023-04-15T05:56:48;19.44;38.26
66752;SHT31;53663;42.676;23.238;2023-04-15T05:59:13;20.44;36.14
66752;SHT31;53663;42.676;23.238;2023-04-15T06:01:39;21.12;34.91
66752;SHT31;53663;42.676;23.238;2023-04-15T06:04:04;21.85;34.98
66752;SHT31;53663;42.676;23.238;2023-04-15T06:06:30;22.09;34.08
66752;SHT31;53663;42.676;23.238;2023-04-15T06:08:56;22.55;33.00
66752;SHT31;53663;42.676;23.238;2023-04-15T06:11:22;23.38;31.83
66752;SHT31;53663;42.676;23.238;2023-04-15T06:13:48;24.27;30.96
66752;SHT31;53663;42.676;23.238;2023-04-15T06:16:14;24.14;30.97
66752;SHT31;53663;42.676;23.238;2023-04-15T06:18:39;24.90;29.00
66752;SHT31;53663;42.676;23.238;2023-04-15T06:21:05;24.51;27.46
66752;SHT31;53663;42.676;23.238;2023-04-15T06:23:33;21.44;33.38
66752;SHT31;53663;42.676;23.238;2023-04-15T06:25:59;23.15;31.62
66752;SHT31;53663;42.676;23.238;2023-04-15T06:28:24;23.80;31.25
66752;SHT31;53663;42.676;23.238;2023-04-15T06:30:50;24.99;29.41
66752;SHT31;53663;42.676;23.238;2023-04-15T06:33:15;26.18;27.63
66752;SHT31;53663;42.676;23.238;2023-04-15T06:35:41;26.26;26.45
66752;SHT31;53663;42.676;23.238;2023-04-15T06:38:06;25.70;28.38
66752;SHT31;53663;42.676;23.238;2023-04-15T06:40:32;24.99;28.86
66752;SHT31;53663;42.676;23.238;2023-04-15T06:42:58;22.63;31.15
66752;SHT31;53663;42.676;23.238;2023-04-15T06:45:23;22.55;31.18
66752;SHT31;53663;42.676;23.238;2023-04-15T06:47:49;24.49;29.79
66752;SHT31;53663;42.676;23.238;2023-04-15T06:50:14;25.91;25.43
66752;SHT31;53663;42.676;23.238;2023-04-15T06:52:40;24.41;26.77
66752;SHT31;53663;42.676;23.238;2023-04-15T06:55:06;20.31;34.24
66752;SHT31;53663;42.676;23.238;2023-04-15T06:57:32;20.54;31.92
66752;SHT31;53663;42.676;23.238;2023-04-15T06:59:57;20.17;31.93
66752;SHT31;53663;42.676;23.238;2023-04-15T07:02:23;20.04;32.90
66752;SHT31;53663;42.676;23.238;2023-04-15T07:04:48;20.79;30.49
66752;SHT31;53663;42.676;23.238;2023-04-15T07:07:14;20.69;31.62
66752;SHT31;53663;42.676;23.238;2023-04-15T07:09:41;21.46;29.67
66752;SHT31;53663;42.676;23.238;2023-04-15T07:12:07;20.47;32.83
66752;SHT31;53663;42.676;23.238;2023-04-15T07:14:32;21.51;30.94
66752;SHT31;53663;42.676;23.238;2023-04-15T07:16:57;20.03;32.27
66752;SHT31;53663;42.676;23.238;2023-04-15T07:19:23;20.10;32.29
66752;SHT31;53663;42.676;23.238;2023-04-15T07:21:48;21.16;30.40
66752;SHT31;53663;42.676;23.238;2023-04-15T07:24:14;20.16;31.86
66752;SHT31;53663;42.676;23.238;2023-04-15T07:26:43;21.82;29.72
66752;SHT31;53663;42.676;23.238;2023-04-15T07:29:09;21.97;30.74
66752;SHT31;53663;42.676;23.238;2023-04-15T07:31:35;22.28;28.90
66752;SHT31;53663;42.676;23.238;2023-04-15T07:34:02;20.59;30.95
66752;SHT31;53663;42.676;23.238;2023-04-15T07:36:27;21.51;31.14
66752;SHT31;53663;42.676;23.238;2023-04-15T07:38:53;22.93;30.00
66752;SHT31;53663;42.676;23.238;2023-04-15T07:41:20;20.47;30.64
66752;SHT31;53663;42.676;23.238;2023-04-15T07:43:46;19.08;33.36
66752;SHT31;53663;42.676;23.238;2023-04-15T07:46:13;19.68;33.04
66752;SHT31;53663;42.676;23.238;2023-04-15T07:48:38;19.39;33.10
66752;SHT31;53663;42.676;23.238;2023-04-15T07:51:04;19.14;33.62
66752;SHT31;53663;42.676;23.238;2023-04-15T07:53:30;18.89;34.94
66752;SHT31;53663;42.676;23.238;2023-04-15T07:55:57;18.87;34.63
66752;SHT31;53663;42.676;23.238;2023-04-15T07:58:23;19.22;33.39
66752;SHT31;53663;42.676;23.238;2023-04-15T08:00:48;19.90;32.80
66752;SHT31;53663;42.676;23.238;2023-04-15T08:03:14;20.13;32.78
66752;SHT31;53663;42.676;23.238;2023-04-15T08:05:39;20.01;32.83
66752;SHT31;53663;42.676;23.238;2023-04-15T08:08:05;19.85;32.52
66752;SHT31;53663;42.676;23.238;2023-04-15T08:10:31;18.98;33.51
66752;SHT31;53663;42.676;23.238;2023-04-15T08:12:56;18.05;34.20
66752;SHT31;53663;42.676;23.238;2023-04-15T08:15:22;18.00;35.18
66752;SHT31;53663;42.676;23.238;2023-04-15T08:17:48;17.49;36.07
66752;SHT31;53663;42.676;23.238;2023-04-15T08:20:13;18.39;34.72
66752;SHT31;53663;42.676;23.238;2023-04-15T08:22:39;18.21;36.95
66752;SHT31;53663;42.676;23.238;2023-04-15T08:25:05;18.36;36.68
66752;SHT31;53663;42.676;23.238;2023-04-15T08:27:31;17.78;37.65
66752;SHT31;53663;42.676;23.238;2023-04-15T08:29:56;17.09;37.58
66752;SHT31;53663;42.676;23.238;2023-04-15T08:32:22;17.04;36.97
66752;SHT31;53663;42.676;23.238;2023-04-15T08:34:47;17.08;38.10
66752;SHT31;53663;42.676;23.238;2023-04-15T08:37:13;16.94;36.52
66752;SHT31;53663;42.676;23.238;2023-04-15T08:39:38;17.06;37.26
66752;SHT31;53663;42.676;23.238;2023-04-15T08:42:10;17.42;36.84
66752;SHT31;53663;42.676;23.238;2023-04-15T08:44:36;18.48;36.11
66752;SHT31;53663;42.676;23.238;2023-04-15T08:47:03;19.00;35.32
66752;SHT31;53663;42.676;23.238;2023-04-15T08:49:31;19.63;33.92
66752;SHT31;53663;42.676;23.238;2023-04-15T08:51:58;19.89;30.05
66752;SHT31;53663;42.676;23.238;2023-04-15T08:54:23;18.80;31.44
66752;SHT31;53663;42.676;23.238;2023-04-15T08:56:49;18.24;33.24
66752;SHT31;53663;42.676;23.238;2023-04-15T08:59:15;18.05;34.09
66752;SHT31;53663;42.676;23.238;2023-04-15T09:01:42;17.35;34.46
66752;SHT31;53663;42.676;23.238;2023-04-15T09:04:08;17.63;34.19
66752;SHT31;53663;42.676;23.238;2023-04-15T09:06:34;18.04;35.35
66752;SHT31;53663;42.676;23.238;2023-04-15T09:08:59;18.05;34.30
66752;SHT31;53663;42.676;23.238;2023-04-15T09:11:25;18.55;31.40
66752;SHT31;53663;42.676;23.238;2023-04-15T09:13:51;17.83;35.16
66752;SHT31;53663;42.676;23.238;2023-04-15T09:16:18;17.47;35.56
66752;SHT31;53663;42.676;23.238;2023-04-15T09:18:43;18.11;33.29
66752;SHT31;53663;42.676;23.238;2023-04-15T09:21:11;19.15;31.66
66752;SHT31;53663;42.676;23.238;2023-04-15T09:23:40;19.06;29.61
66752;SHT31;53663;42.676;23.238;2023-04-15T09:26:06;18.97;30.41
66752;SHT31;53663;42.676;23.238;2023-04-15T09:28:32;18.43;30.15
66752;SHT31;53663;42.676;23.238;2023-04-15T09:31:01;18.19;30.76
66752;SHT31;53663;42.676;23.238;2023-04-15T09:33:28;18.02;32.09
66752;SHT31;53663;42.676;23.238;2023-04-15T09:36:04;18.32;32.20
66752;SHT31;53663;42.676;23.238;2023-04-15T09:38:30;18.59;31.10
66752;SHT31;53663;42.676;23.238;2023-04-15T09:40:57;18.69;30.25
66752;SHT31;53663;42.676;23.238;2023-04-15T09:43:36;18.57;29.41
66752;SHT31;53663;42.676;23.238;2023-04-15T09:46:02;18.60;28.83
66752;SHT31;53663;42.676;23.238;2023-04-15T09:48:27;18.41;30.47
66752;SHT31;53663;42.676;23.238;2023-04-15T09:50:59;17.49;31.22
66752;SHT31;53663;42.676;23.238;2023-04-15T09:53:26;17.02;31.19
66752;SHT31;53663;42.676;23.238;2023-04-15T09:55:53;17.53;31.71
66752;SHT31;53663;42.676;23.238;2023-04-15T09:58:21;17.18;30.90
66752;SHT31;53663;42.676;23.238;2023-04-15T10:00:49;16.94;30.89
66752;SHT31;53663;42.676;23.238;2023-04-15T10:03:20;16.77;30.70
66752;SHT31;53663;42.676;23.238;2023-04-15T10:05:47;16.34;31.41
66752;SHT31;53663;42.676;23.238;2023-04-15T10:08:16;16.26;32.27
66752;SHT31;53663;42.676;23.238;2023-04-15T10:10:44;16.58;32.69
66752;SHT31;53663;42.676;23.238;2023-04-15T10:13:12;16.51;31.96
66752;SHT31;53663;42.676;23.238;2023-04-15T10:15:38;16.30;32.91
66752;SHT31;53663;42.676;23.238;2023-04-15T10:18:06;16.72;32.70
66752;SHT31;53663;42.676;23.238;2023-04-15T10:20:33;16.12;32.95
66752;SHT31;53663;42.676;23.238;2023-04-15T10:22:59;16.43;31.97
66752;SHT31;53663;42.676;23.238;2023-04-15T10:25:27;16.31;31.93
66752;SHT31;53663;42.676;23.238;2023-04-15T10:27:54;16.31;34.20
66752;SHT31;53663;42.676;23.238;2023-04-15T10:30:21;16.50;34.35
66752;SHT31;53663;42.676;23.238;2023-04-15T10:32:47;16.98;34.19
66752;SHT31;53663;42.676;23.238;2023-04-15T10:35:14;18.08;32.57
66752;SHT31;53663;42.676;23.238;2023-04-15T10:37:40;19.03;31.37
66752;SHT31;53663;42.676;23.238;2023-04-15T10:40:30;19.61;31.21
66752;SHT31;53663;42.676;23.238;2023-04-15T10:42:58;19.56;30.45
66752;SHT31;53663;42.676;23.238;2023-04-15T10:45:35;18.66;30.81
66752;SHT31;53663;42.676;23.238;2023-04-15T10:48:06;18.64;31.28
66752;SHT31;53663;42.676;23.238;2023-04-15T10:50:32;18.18;33.02
66752;SHT31;53663;42.676;23.238;2023-04-15T10:52:58;17.97;31.88
66752;SHT31;53663;42.676;23.238;2023-04-15T10:55:31;18.02;32.22
66752;SHT31;53663;42.676;23.238;2023-04-15T10:57:58;17.54;33.66
66752;SHT31;53663;42.676;23.238;2023-04-15T11:00:28;18.28;33.39
66752;SHT31;53663;42.676;23.238;2023-04-15T11:02:55;18.74;31.71
66752;SHT31;53663;42.676;23.238;2023-04-15T11:08:04;18.87;31.67
66752;SHT31;53663;42.676;23.238;2023-04-15T11:12:57;18.76;32.80
66752;SHT31;53663;42.676;23.238;2023-04-15T11:15:42;18.31;32.57
66752;SHT31;53663;42.676;23.238;2023-04-15T11:18:22;17.80;33.20
66752;SHT31;53663;42.676;23.238;2023-04-15T11:23:16;17.74;32.76
66752;SHT31;53663;42.676;23.238;2023-04-15T11:25:42;18.11;31.90
66752;SHT31;53663;42.676;23.238;2023-04-15T11:28:08;17.64;31.56
66752;SHT31;53663;42.676;23.238;2023-04-15T11:30:35;17.57;31.90
66752;SHT31;53663;42.676;23.238;2023-04-15T11:33:06;18.46;32.45
66752;SHT31;53663;42.676;23.238;2023-04-15T11:35:33;18.62;29.98
66752;SHT31;53663;42.676;23.238;2023-04-15T11:38:09;19.08;30.33
66752;SHT31;53663;42.676;23.238;2023-04-15T11:40:37;19.61;29.30
66752;SHT31;53663;42.676;23.238;2023-04-15T11:43:16;19.54;30.16
66752;SHT31;53663;42.676;23.238;2023-04-15T11:45:50;18.46;29.81
66752;SHT31;53663;42.676;23.238;2023-04-15T11:48:16;18.70;30.15
66752;SHT31;53663;42.676;23.238;2023-04-15T11:50:42;18.41;30.98
66752;SHT31;53663;42.676;23.238;2023-04-15T11:53:10;18.31;30.30
66752;SHT31;53663;42.676;23.238;2023-04-15T11:55:44;18.94;28.46
66752;SHT31;53663;42.676;23.238;2023-04-15T11:58:21;19.31;27.71
66752;SHT31;53663;42.676;23.238;2023-04-15T12:00:57;19.79;29.38
66752;SHT31;53663;42.676;23.238;2023-04-15T12:03:29;19.24;27.08
66752;SHT31;53663;42.676;23.238;2023-04-15T12:09:00;20.21;29.74
66752;SHT31;53663;42.676;23.238;2023-04-15T12:13:56;19.01;25.54
66752;SHT31;53663;42.676;23.238;2023-04-15T12:16:23;18.77;25.19
66752;SHT31;53663;42.676;23.238;2023-04-15T12:18:53;18.36;27.39
66752;SHT31;53663;42.676;23.238;2023-04-15T12:21:24;17.59;28.25
66752;SHT31;53663;42.676;23.238;2023-04-15T12:23:54;18.05;28.77
66752;SHT31;53663;42.676;23.238;2023-04-15T12:26:34;18.09;30.32
66752;SHT31;53663;42.676;23.238;2023-04-15T12:29:04;18.29;29.58
66752;SHT31;53663;42.676;23.238;2023-04-15T12:31:31;17.75;30.66
66752;SHT31;53663;42.676;23.238;2023-04-15T12:33:59;18.46;29.42
66752;SHT31;53663;42.676;23.238;2023-04-15T12:36:26;18.83;30.34
66752;SHT31;53663;42.676;23.238;2023-04-15T12:38:52;19.03;27.39
66752;SHT31;53663;42.676;23.238;2023-04-15T12:41:19;18.39;28.10
66752;SHT31;53663;42.676;23.238;2023-04-15T12:43:45;18.48;29.12
66752;SHT31;53663;42.676;23.238;2023-04-15T12:46:12;18.84;27.49
66752;SHT31;53663;42.676;23.238;2023-04-15T12:48:39;19.29;27.11
66752;SHT31;53663;42.676;23.238;2023-04-15T12:51:04;18.45;27.61
66752;SHT31;53663;42.676;23.238;2023-04-15T12:53:30;18.31;28.98
66752;SHT31;53663;42.676;23.238;2023-04-15T12:55:55;17.81;29.75
66752;SHT31;53663;42.676;23.238;2023-04-15T12:58:22;18.35;28.04
66752;SHT31;53663;42.676;23.238;2023-04-15T13:00:48;18.41;28.82
66752;SHT31;53663;42.676;23.238;2023-04-15T13:03:16;17.92;29.87
66752;SHT31;53663;42.676;23.238;2023-04-15T13:05:42;18.52;29.01
66752;SHT31;53663;42.676;23.238;2023-04-15T13:08:07;18.00;28.98
66752;SHT31;53663;42.676;23.238;2023-04-15T13:10:34;18.35;28.99
66752;SHT31;53663;42.676;23.238;2023-04-15T13:13:03;18.66;27.94
66752;SHT31;53663;42.676;23.238;2023-04-15T13:15:28;19.00;28.32
66752;SHT31;53663;42.676;23.238;2023-04-15T13:17:54;19.18;28.35
66752;SHT31;53663;42.676;23.238;2023-04-15T13:20:20;19.42;27.72
66752;SHT31;53663;42.676;23.238;2023-04-15T13:22:45;19.82;27.31
66752;SHT31;53663;42.676;23.238;2023-04-15T13:25:11;20.10;27.58
66752;SHT31;53663;42.676;23.238;2023-04-15T13:27:36;19.47;26.69
66752;SHT31;53663;42.676;23.238;2023-04-15T13:30:03;18.98;27.48
66752;SHT31;53663;42.676;23.238;2023-04-15T13:32:28;18.90;27.49
66752;SHT31;53663;42.676;23.238;2023-04-15T13:34:54;18.90;27.79
66752;SHT31;53663;42.676;23.238;2023-04-15T13:37:28;17.87;29.68
66752;SHT31;53663;42.676;23.238;2023-04-15T13:39:54;18.25;30.44
66752;SHT31;53663;42.676;23.238;2023-04-15T13:42:21;18.84;29.12
66752;SHT31;53663;42.676;23.238;2023-04-15T13:44:48;18.77;28.48
66752;SHT31;53663;42.676;23.238;2023-04-15T13:47:13;18.45;29.85
66752;SHT31;53663;42.676;23.238;2023-04-15T13:49:40;19.06;28.68
66752;SHT31;53663;42.676;23.238;2023-04-15T13:52:06;19.39;28.15
66752;SHT31;53663;42.676;23.238;2023-04-15T13:54:31;19.58;27.83
66752;SHT31;53663;42.676;23.238;2023-04-15T13:56:57;19.70;27.16
66752;SHT31;53663;42.676;23.238;2023-04-15T13:59:22;19.54;27.93
66752;SHT31;53663;42.676;23.238;2023-04-15T14:01:48;19.54;27.50
66752;SHT31;53663;42.676;23.238;2023-04-15T14:04:14;19.65;27.94
66752;SHT31;53663;42.676;23.238;2023-04-15T14:06:39;19.76;27.77
66752;SHT31;53663;42.676;23.238;2023-04-15T14:09:05;19.79;28.04
66752;SHT31;53663;42.676;23.238;2023-04-15T14:11:30;19.75;27.66
66752;SHT31;53663;42.676;23.238;2023-04-15T14:13:56;19.72;27.49
66752;SHT31;53663;42.676;23.238;2023-04-15T14:16:21;19.65;27.39
66752;SHT31;53663;42.676;23.238;2023-04-15T14:18:47;19.44;27.36
66752;SHT31;53663;42.676;23.238;2023-04-15T14:21:12;18.86;29.32
66752;SHT31;53663;42.676;23.238;2023-04-15T14:23:39;19.08;28.83
66752;SHT31;53663;42.676;23.238;2023-04-15T14:26:05;18.76;28.22
66752;SHT31;53663;42.676;23.238;2023-04-15T14:28:30;18.31;29.05
66752;SHT31;53663;42.676;23.238;2023-04-15T14:30:56;18.52;29.72
66752;SHT31;53663;42.676;23.238;2023-04-15T14:33:22;17.91;29.44
66752;SHT31;53663;42.676;23.238;2023-04-15T14:35:48;17.80;29.87
66752;SHT31;53663;42.676;23.238;2023-04-15T14:38:14;17.59;30.95
66752;SHT31;53663;42.676;23.238;2023-04-15T14:40:40;17.94;30.60
66752;SHT31;53663;42.676;23.238;2023-04-15T14:43:05;18.28;29.41
66752;SHT31;53663;42.676;23.238;2023-04-15T14:45:31;18.57;29.00
66752;SHT31;53663;42.676;23.238;2023-04-15T14:47:57;18.48;28.79
66752;SHT31;53663;42.676;23.238;2023-04-15T14:50:23;18.04;28.89
66752;SHT31;53663;42.676;23.238;2023-04-15T14:52:48;18.01;30.57
66752;SHT31;53663;42.676;23.238;2023-04-15T14:55:14;18.19;29.36
66752;SHT31;53663;42.676;23.238;2023-04-15T14:57:40;17.78;29.68
66752;SHT31;53663;42.676;23.238;2023-04-15T15:00:07;17.37;30.33
66752;SHT31;53663;42.676;23.238;2023-04-15T15:02:34;17.36;30.59
66752;SHT31;53663;42.676;23.238;2023-04-15T15:05:01;17.53;31.25
66752;SHT31;53663;42.676;23.238;2023-04-15T15:07:26;17.73;30.79
66752;SHT31;53663;42.676;23.238;2023-04-15T15:09:53;17.37;30.68
66752;SHT31;53663;42.676;23.238;2023-04-15T15:12:18;17.08;30.82
66752;SHT31;53663;42.676;23.238;2023-04-15T15:14:44;17.22;30.80
66752;SHT31;53663;42.676;23.238;2023-04-15T15:17:09;17.18;31.32
66752;SHT31;53663;42.676;23.238;2023-04-15T15:19:35;17.40;30.79
66752;SHT31;53663;42.676;23.238;2023-04-15T15:22:02;17.36;30.51
66752;SHT31;53663;42.676;23.238;2023-04-15T15:24:27;17.44;30.18
66752;SHT31;53663;42.676;23.238;2023-04-15T15:26:53;17.23;30.40
66752;SHT31;53663;42.676;23.238;2023-04-15T15:29:18;16.75;31.35